HAZ129 RJTT-ZSPD
Flight info
| Callsign | HAZ129 |
|---|---|
| Flight time | N/A |
| Altitude | 40000 |
| Route | NINOX Y28 ISAKY Y592 POTET A593 LAMEN/K0896F400 A593 DUMET DUM82A |
| Aircraft | A359/H-SDE2E3GHIJ3J4J5LM1ORWXY/LB1D1 |
Departure
| Time | N/A |
|---|---|
| Airport | Tokyo Haneda International Airport (RJTT) |
Arrival
| Time | 2026-05-06 09:20 |
|---|---|
| Airport | Shanghai Pudong International Airport (ZSPD) |
| Time | Latitude | Longitude | Altitude | Speed | Heading |
|---|---|---|---|---|---|
| 2026-05-06 06:57 | 35.49681 | 139.12316 | 26766 ft | 376 kts | 266° |
| 2026-05-06 06:57 | 35.49661 | 139.09114 | 27385 ft | 376 kts | 263° |
| 2026-05-06 06:58 | 35.49510 | 139.05901 | 27986 ft | 376 kts | 262° |
| 2026-05-06 06:58 | 35.49306 | 139.02697 | 28574 ft | 379 kts | 261° |
| 2026-05-06 06:58 | 35.49087 | 138.99463 | 29128 ft | 381 kts | 261° |
| 2026-05-06 06:58 | 35.48944 | 138.97270 | 29533 ft | 383 kts | 262° |
| 2026-05-06 06:59 | 35.48686 | 138.92944 | 30278 ft | 386 kts | 261° |
| 2026-05-06 06:59 | 35.48501 | 138.89646 | 30722 ft | 388 kts | 262° |
| 2026-05-06 06:59 | 35.48333 | 138.86338 | 31124 ft | 390 kts | 262° |
| 2026-05-06 06:59 | 35.48227 | 138.84132 | 31439 ft | 391 kts | 262° |
| 2026-05-06 07:00 | 35.48009 | 138.79667 | 32033 ft | 393 kts | 262° |
| 2026-05-06 07:00 | 35.47899 | 138.77450 | 32320 ft | 394 kts | 262° |
| 2026-05-06 07:00 | 35.47729 | 138.74091 | 32722 ft | 395 kts | 262° |
| 2026-05-06 07:00 | 35.47497 | 138.69580 | 33261 ft | 397 kts | 262° |
| 2026-05-06 07:01 | 35.47382 | 138.67354 | 33595 ft | 395 kts | 262° |
| 2026-05-06 07:01 | 35.47151 | 138.62883 | 34409 ft | 389 kts | 262° |
| 2026-05-06 07:01 | 35.47038 | 138.60697 | 34781 ft | 386 kts | 262° |
| 2026-05-06 07:01 | 35.46867 | 138.57421 | 35320 ft | 382 kts | 262° |
| 2026-05-06 07:02 | 35.46696 | 138.54181 | 35818 ft | 380 kts | 261° |
| 2026-05-06 07:02 | 35.46520 | 138.50959 | 36292 ft | 378 kts | 261° |
| 2026-05-06 07:02 | 35.46346 | 138.47758 | 36761 ft | 375 kts | 261° |
| 2026-05-06 07:02 | 35.46176 | 138.44579 | 37233 ft | 372 kts | 261° |
| 2026-05-06 07:03 | 35.46009 | 138.41416 | 37669 ft | 371 kts | 261° |
| 2026-05-06 07:03 | 35.45840 | 138.38260 | 38059 ft | 370 kts | 261° |
| 2026-05-06 07:03 | 35.45675 | 138.35108 | 38561 ft | 370 kts | 261° |
| 2026-05-06 07:03 | 35.45516 | 138.31988 | 39057 ft | 365 kts | 261° |
| 2026-05-06 07:04 | 35.45341 | 138.28874 | 39207 ft | 369 kts | 261° |
| 2026-05-06 07:04 | 35.45164 | 138.25743 | 39415 ft | 369 kts | 261° |
| 2026-05-06 07:04 | 35.44999 | 138.22590 | 39585 ft | 370 kts | 262° |
| 2026-05-06 07:04 | 35.44834 | 138.19451 | 39789 ft | 370 kts | 260° |
| 2026-05-06 07:05 | 35.44642 | 138.16281 | 39881 ft | 373 kts | 261° |
| 2026-05-06 07:05 | 35.44270 | 138.09885 | 40019 ft | 379 kts | 262° |
| 2026-05-06 07:05 | 35.44105 | 138.06660 | 40151 ft | 380 kts | 262° |
| 2026-05-06 07:06 | 35.43936 | 138.03431 | 40174 ft | 379 kts | 262° |
| 2026-05-06 07:06 | 35.43550 | 137.97008 | 40177 ft | 377 kts | 261° |
| 2026-05-06 07:07 | 35.43120 | 137.90585 | 40176 ft | 379 kts | 261° |
| 2026-05-06 07:07 | 35.42717 | 137.84149 | 40174 ft | 379 kts | 261° |
| 2026-05-06 07:08 | 35.42331 | 137.77748 | 40169 ft | 379 kts | 261° |
| 2026-05-06 07:08 | 35.41893 | 137.71267 | 40166 ft | 379 kts | 261° |
| 2026-05-06 07:09 | 35.41429 | 137.64880 | 40162 ft | 379 kts | 261° |
| 2026-05-06 07:09 | 35.40933 | 137.58445 | 40164 ft | 379 kts | 259° |
| 2026-05-06 07:10 | 35.39904 | 137.52155 | 40166 ft | 376 kts | 254° |
| 2026-05-06 07:10 | 35.38602 | 137.45940 | 40161 ft | 376 kts | 253° |
| 2026-05-06 07:11 | 35.37247 | 137.39755 | 40157 ft | 376 kts | 253° |
| 2026-05-06 07:11 | 35.35883 | 137.33561 | 40151 ft | 376 kts | 253° |
| 2026-05-06 07:12 | 35.34522 | 137.27372 | 40152 ft | 377 kts | 253° |
| 2026-05-06 07:12 | 35.33160 | 137.21176 | 40153 ft | 377 kts | 253° |
| 2026-05-06 07:13 | 35.31795 | 137.14978 | 40153 ft | 377 kts | 253° |
| 2026-05-06 07:13 | 35.30427 | 137.08784 | 40153 ft | 377 kts | 253° |
| 2026-05-06 07:14 | 35.29055 | 137.02601 | 40147 ft | 377 kts | 253° |
| 2026-05-06 07:14 | 35.27679 | 136.96409 | 40146 ft | 377 kts | 253° |
| 2026-05-06 07:15 | 35.26298 | 136.90213 | 40146 ft | 377 kts | 253° |
| 2026-05-06 07:15 | 35.24914 | 136.84022 | 40145 ft | 377 kts | 253° |
| 2026-05-06 07:16 | 35.23524 | 136.77831 | 40146 ft | 377 kts | 253° |
| 2026-05-06 07:16 | 35.22143 | 136.71691 | 40149 ft | 377 kts | 252° |
| 2026-05-06 07:17 | 35.20749 | 136.65513 | 40141 ft | 377 kts | 252° |
| 2026-05-06 07:17 | 35.19352 | 136.59334 | 40144 ft | 377 kts | 252° |
| 2026-05-06 07:18 | 35.17952 | 136.53162 | 40149 ft | 377 kts | 252° |
| 2026-05-06 07:18 | 35.16548 | 136.46984 | 40142 ft | 377 kts | 252° |
| 2026-05-06 07:19 | 35.15101 | 136.40798 | 40145 ft | 379 kts | 251° |
| 2026-05-06 07:19 | 35.13635 | 136.34615 | 40149 ft | 378 kts | 251° |
| 2026-05-06 07:20 | 35.12199 | 136.28441 | 40148 ft | 378 kts | 251° |
| 2026-05-06 07:20 | 35.10780 | 136.22260 | 40146 ft | 378 kts | 252° |
| 2026-05-06 07:21 | 35.09374 | 136.16075 | 40146 ft | 378 kts | 252° |
| 2026-05-06 07:21 | 35.07962 | 136.09884 | 40146 ft | 378 kts | 251° |
| 2026-05-06 07:22 | 35.06546 | 136.03694 | 40145 ft | 379 kts | 251° |
| 2026-05-06 07:22 | 35.05122 | 135.97510 | 40141 ft | 379 kts | 251° |
| 2026-05-06 07:23 | 35.03685 | 135.91319 | 40143 ft | 379 kts | 251° |
| 2026-05-06 07:23 | 35.02245 | 135.85137 | 40143 ft | 379 kts | 251° |
| 2026-05-06 07:24 | 35.00924 | 135.78943 | 40147 ft | 381 kts | 253° |
| 2026-05-06 07:24 | 34.99768 | 135.72647 | 40137 ft | 381 kts | 254° |
| 2026-05-06 07:25 | 34.98643 | 135.66400 | 40128 ft | 381 kts | 254° |
| 2026-05-06 07:25 | 34.97508 | 135.60094 | 40124 ft | 381 kts | 254° |
| 2026-05-06 07:26 | 34.96361 | 135.53784 | 40113 ft | 381 kts | 254° |
| 2026-05-06 07:26 | 34.95179 | 135.47476 | 40111 ft | 382 kts | 253° |
| 2026-05-06 07:27 | 34.93962 | 135.41177 | 40110 ft | 382 kts | 253° |
| 2026-05-06 07:27 | 34.92750 | 135.34872 | 40115 ft | 382 kts | 253° |
| 2026-05-06 07:28 | 34.91524 | 135.28578 | 40113 ft | 382 kts | 253° |
| 2026-05-06 07:28 | 34.89665 | 135.19125 | 40116 ft | 382 kts | 253° |
| 2026-05-06 07:29 | 34.88424 | 135.12824 | 40132 ft | 383 kts | 253° |
| 2026-05-06 07:29 | 34.87178 | 135.06517 | 40134 ft | 383 kts | 253° |
| 2026-05-06 07:30 | 34.86140 | 135.01274 | 40133 ft | 384 kts | 253° |
| 2026-05-06 07:30 | 34.84722 | 134.93871 | 40131 ft | 384 kts | 253° |
| 2026-05-06 07:31 | 34.83543 | 134.87535 | 40129 ft | 385 kts | 253° |
| 2026-05-06 07:31 | 34.82353 | 134.81172 | 40129 ft | 385 kts | 253° |
| 2026-05-06 07:32 | 34.81160 | 134.74819 | 40135 ft | 386 kts | 253° |
| 2026-05-06 07:32 | 34.79967 | 134.68496 | 40132 ft | 386 kts | 253° |
| 2026-05-06 07:33 | 34.78751 | 134.62100 | 40130 ft | 386 kts | 253° |
| 2026-05-06 07:33 | 34.77533 | 134.55792 | 40130 ft | 386 kts | 253° |
| 2026-05-06 07:34 | 34.76294 | 134.49402 | 40125 ft | 386 kts | 253° |
| 2026-05-06 07:34 | 34.75070 | 134.43083 | 40126 ft | 386 kts | 253° |
| 2026-05-06 07:35 | 34.73854 | 134.36722 | 40122 ft | 386 kts | 253° |
| 2026-05-06 07:35 | 34.72639 | 134.30358 | 40122 ft | 386 kts | 253° |
| 2026-05-06 07:36 | 34.71417 | 134.23994 | 40118 ft | 387 kts | 253° |
| 2026-05-06 07:36 | 34.70191 | 134.17622 | 40113 ft | 388 kts | 253° |
| 2026-05-06 07:37 | 34.68963 | 134.11233 | 40105 ft | 388 kts | 253° |
| 2026-05-06 07:37 | 34.67733 | 134.04853 | 40105 ft | 388 kts | 253° |
| 2026-05-06 07:38 | 34.66207 | 133.98590 | 40107 ft | 386 kts | 249° |
| 2026-05-06 07:38 | 34.64381 | 133.92449 | 40102 ft | 386 kts | 247° |
| 2026-05-06 07:39 | 34.62488 | 133.86346 | 40105 ft | 387 kts | 247° |
| 2026-05-06 07:39 | 34.60584 | 133.80234 | 40103 ft | 387 kts | 247° |
| 2026-05-06 07:40 | 34.58681 | 133.74106 | 40103 ft | 388 kts | 247° |
| 2026-05-06 07:40 | 34.56777 | 133.67971 | 40102 ft | 389 kts | 247° |
| 2026-05-06 07:41 | 34.54867 | 133.61836 | 40104 ft | 389 kts | 247° |
| 2026-05-06 07:41 | 34.52901 | 133.55724 | 40102 ft | 389 kts | 246° |
| 2026-05-06 07:42 | 34.50892 | 133.49632 | 40100 ft | 389 kts | 246° |
| 2026-05-06 07:42 | 34.48869 | 133.43534 | 40102 ft | 390 kts | 246° |
| 2026-05-06 07:43 | 34.46855 | 133.37426 | 40097 ft | 391 kts | 246° |
| 2026-05-06 07:43 | 34.44914 | 133.31272 | 40099 ft | 391 kts | 247° |
| 2026-05-06 07:44 | 34.42993 | 133.25092 | 40096 ft | 392 kts | 247° |
| 2026-05-06 07:44 | 34.41064 | 133.18908 | 40096 ft | 393 kts | 247° |
| 2026-05-06 07:45 | 34.39115 | 133.12725 | 40098 ft | 394 kts | 247° |
| 2026-05-06 07:45 | 34.37475 | 133.07572 | 40114 ft | 395 kts | 247° |
| 2026-05-06 07:46 | 34.35161 | 133.00318 | 40110 ft | 396 kts | 247° |
| 2026-05-06 07:46 | 34.33183 | 132.94103 | 40094 ft | 396 kts | 247° |
| 2026-05-06 07:47 | 34.31543 | 132.88925 | 40104 ft | 397 kts | 247° |
| 2026-05-06 07:47 | 34.29577 | 132.82677 | 40108 ft | 398 kts | 247° |
| 2026-05-06 07:48 | 34.27605 | 132.76402 | 40109 ft | 400 kts | 247° |
| 2026-05-06 07:48 | 34.25618 | 132.70111 | 40108 ft | 401 kts | 247° |
| 2026-05-06 07:49 | 34.23617 | 132.63796 | 40091 ft | 403 kts | 247° |
| 2026-05-06 07:49 | 34.21607 | 132.57468 | 40105 ft | 404 kts | 247° |
| 2026-05-06 07:50 | 34.19594 | 132.51124 | 40103 ft | 404 kts | 247° |
| 2026-05-06 07:50 | 34.17583 | 132.44775 | 40103 ft | 405 kts | 247° |
| 2026-05-06 07:51 | 34.15578 | 132.38457 | 40099 ft | 406 kts | 247° |
| 2026-05-06 07:51 | 34.13549 | 132.32081 | 40102 ft | 408 kts | 247° |
| 2026-05-06 07:52 | 34.11510 | 132.25687 | 40101 ft | 409 kts | 247° |
| 2026-05-06 07:52 | 34.09460 | 132.19271 | 40100 ft | 410 kts | 248° |
| 2026-05-06 07:53 | 34.07580 | 132.12769 | 40106 ft | 413 kts | 251° |
| 2026-05-06 07:53 | 34.06017 | 132.06092 | 40099 ft | 414 kts | 252° |
| 2026-05-06 07:54 | 34.04524 | 131.99381 | 40095 ft | 415 kts | 252° |
| 2026-05-06 07:54 | 34.03032 | 131.92639 | 40090 ft | 417 kts | 252° |
| 2026-05-06 07:55 | 34.01523 | 131.85873 | 40091 ft | 419 kts | 252° |
| 2026-05-06 07:55 | 34.00001 | 131.79084 | 40091 ft | 420 kts | 253° |
| 2026-05-06 07:56 | 33.98468 | 131.72274 | 40076 ft | 422 kts | 253° |
| 2026-05-06 07:56 | 33.96928 | 131.65446 | 40080 ft | 423 kts | 253° |
| 2026-05-06 07:57 | 33.95375 | 131.58586 | 40075 ft | 425 kts | 253° |
| 2026-05-06 07:57 | 33.93817 | 131.51717 | 40074 ft | 425 kts | 253° |
| 2026-05-06 07:58 | 33.92255 | 131.44848 | 40074 ft | 426 kts | 253° |
| 2026-05-06 07:58 | 33.90686 | 131.37967 | 40078 ft | 427 kts | 253° |
| 2026-05-06 07:59 | 33.89119 | 131.31120 | 40077 ft | 428 kts | 253° |
| 2026-05-06 07:59 | 33.87535 | 131.24213 | 40077 ft | 429 kts | 253° |
| 2026-05-06 08:00 | 33.85941 | 131.17286 | 40077 ft | 430 kts | 253° |
| 2026-05-06 08:00 | 33.84344 | 131.10358 | 40076 ft | 431 kts | 253° |
| 2026-05-06 08:01 | 33.82739 | 131.03416 | 40076 ft | 431 kts | 253° |
| 2026-05-06 08:01 | 33.81126 | 130.96459 | 40078 ft | 432 kts | 253° |
| 2026-05-06 08:02 | 33.79508 | 130.89502 | 40075 ft | 433 kts | 253° |
| 2026-05-06 08:02 | 33.77909 | 130.82644 | 40067 ft | 434 kts | 253° |
| 2026-05-06 08:03 | 33.76272 | 130.75650 | 40062 ft | 435 kts | 253° |
| 2026-05-06 08:03 | 33.74632 | 130.68654 | 40062 ft | 436 kts | 253° |
| 2026-05-06 08:04 | 33.72971 | 130.61633 | 40062 ft | 437 kts | 253° |
| 2026-05-06 08:04 | 33.71322 | 130.54618 | 40072 ft | 437 kts | 253° |
| 2026-05-06 08:05 | 33.69669 | 130.47595 | 40077 ft | 438 kts | 253° |
| 2026-05-06 08:05 | 33.67808 | 130.40637 | 40073 ft | 438 kts | 247° |
| 2026-05-06 08:06 | 33.64743 | 130.34316 | 40075 ft | 440 kts | 236° |
| 2026-05-06 08:06 | 33.61090 | 130.28402 | 40069 ft | 442 kts | 235° |
| 2026-05-06 08:07 | 33.57363 | 130.22590 | 40064 ft | 443 kts | 234° |
| 2026-05-06 08:07 | 33.53604 | 130.16726 | 40058 ft | 444 kts | 234° |
| 2026-05-06 08:08 | 33.49848 | 130.10836 | 40050 ft | 445 kts | 235° |
| 2026-05-06 08:08 | 33.46096 | 130.04946 | 40046 ft | 446 kts | 235° |
| 2026-05-06 08:09 | 33.42325 | 129.99033 | 40042 ft | 446 kts | 235° |
| 2026-05-06 08:09 | 33.38551 | 129.93125 | 40044 ft | 447 kts | 235° |
| 2026-05-06 08:10 | 33.34773 | 129.87227 | 40051 ft | 447 kts | 235° |
| 2026-05-06 08:10 | 33.30986 | 129.81320 | 40047 ft | 448 kts | 235° |
| 2026-05-06 08:11 | 33.27195 | 129.75414 | 40050 ft | 449 kts | 235° |
| 2026-05-06 08:11 | 33.23380 | 129.69482 | 40051 ft | 449 kts | 234° |
| 2026-05-06 08:12 | 33.20024 | 129.63225 | 40054 ft | 447 kts | 245° |
| 2026-05-06 08:12 | 33.17497 | 129.56437 | 40056 ft | 448 kts | 248° |
| 2026-05-06 08:13 | 33.15137 | 129.49548 | 40056 ft | 449 kts | 249° |
| 2026-05-06 08:13 | 33.12799 | 129.42633 | 40055 ft | 450 kts | 249° |
| 2026-05-06 08:14 | 33.10440 | 129.35716 | 40060 ft | 451 kts | 248° |
| 2026-05-06 08:14 | 33.08062 | 129.28792 | 40057 ft | 452 kts | 249° |
| 2026-05-06 08:15 | 33.05668 | 129.21850 | 40060 ft | 453 kts | 249° |
| 2026-05-06 08:15 | 33.03269 | 129.14905 | 40060 ft | 454 kts | 249° |
| 2026-05-06 08:16 | 33.00860 | 129.07947 | 40064 ft | 455 kts | 249° |
| 2026-05-06 08:16 | 32.98461 | 129.01034 | 40062 ft | 455 kts | 249° |
| 2026-05-06 08:17 | 32.96034 | 128.94052 | 40067 ft | 456 kts | 249° |
| 2026-05-06 08:17 | 32.93602 | 128.87071 | 40067 ft | 457 kts | 249° |
| 2026-05-06 08:18 | 32.91163 | 128.80086 | 40069 ft | 458 kts | 249° |
| 2026-05-06 08:18 | 32.88711 | 128.73078 | 40069 ft | 459 kts | 249° |
| 2026-05-06 08:19 | 32.86255 | 128.66072 | 40069 ft | 459 kts | 249° |
| 2026-05-06 08:19 | 32.83788 | 128.59051 | 40068 ft | 460 kts | 249° |
| 2026-05-06 08:20 | 32.81316 | 128.52032 | 40066 ft | 461 kts | 249° |
| 2026-05-06 08:20 | 32.78838 | 128.45010 | 40063 ft | 461 kts | 249° |
| 2026-05-06 08:21 | 32.76353 | 128.37986 | 40065 ft | 461 kts | 249° |
| 2026-05-06 08:21 | 32.73860 | 128.30950 | 40064 ft | 462 kts | 249° |
| 2026-05-06 08:22 | 32.71363 | 128.23919 | 40063 ft | 463 kts | 249° |
| 2026-05-06 08:22 | 32.68848 | 128.16853 | 40063 ft | 464 kts | 249° |
| 2026-05-06 08:23 | 32.66329 | 128.09792 | 40060 ft | 465 kts | 249° |
| 2026-05-06 08:23 | 32.63807 | 128.02736 | 40062 ft | 465 kts | 249° |
| 2026-05-06 08:24 | 32.61276 | 127.95668 | 40060 ft | 466 kts | 249° |
| 2026-05-06 08:24 | 32.58737 | 127.88596 | 40060 ft | 466 kts | 249° |
| 2026-05-06 08:25 | 32.56193 | 127.81525 | 40063 ft | 466 kts | 249° |
| 2026-05-06 08:25 | 32.53643 | 127.74452 | 40061 ft | 467 kts | 249° |
| 2026-05-06 08:26 | 32.51104 | 127.67422 | 40058 ft | 467 kts | 249° |
| 2026-05-06 08:26 | 32.48538 | 127.60335 | 40054 ft | 468 kts | 249° |
| 2026-05-06 08:27 | 32.45968 | 127.53250 | 40054 ft | 469 kts | 249° |
| 2026-05-06 08:27 | 32.43391 | 127.46160 | 40059 ft | 469 kts | 249° |
| 2026-05-06 08:28 | 32.40808 | 127.39070 | 40056 ft | 469 kts | 249° |
| 2026-05-06 08:28 | 32.38222 | 127.31987 | 40060 ft | 469 kts | 249° |
| 2026-05-06 08:29 | 32.35630 | 127.24902 | 40058 ft | 469 kts | 249° |
| 2026-05-06 08:29 | 32.33034 | 127.17820 | 40052 ft | 469 kts | 249° |
| 2026-05-06 08:30 | 32.30430 | 127.10733 | 40067 ft | 470 kts | 249° |
| 2026-05-06 08:30 | 32.27974 | 127.03599 | 40053 ft | 468 kts | 255° |
| 2026-05-06 08:31 | 32.26214 | 126.96204 | 40048 ft | 467 kts | 257° |
| 2026-05-06 08:31 | 32.24577 | 126.88778 | 40046 ft | 467 kts | 257° |
| 2026-05-06 08:32 | 32.22957 | 126.81350 | 40059 ft | 467 kts | 257° |
| 2026-05-06 08:32 | 32.21323 | 126.73930 | 40056 ft | 467 kts | 257° |
| 2026-05-06 08:33 | 32.19677 | 126.66506 | 40055 ft | 467 kts | 257° |
| 2026-05-06 08:33 | 32.18326 | 126.60338 | 40058 ft | 467 kts | 257° |
| 2026-05-06 08:34 | 32.15663 | 126.47986 | 40055 ft | 467 kts | 258° |
| 2026-05-06 08:35 | 32.14054 | 126.40559 | 40053 ft | 467 kts | 258° |
| 2026-05-06 08:35 | 32.12439 | 126.33141 | 40051 ft | 467 kts | 258° |
| 2026-05-06 08:36 | 32.10815 | 126.25709 | 40054 ft | 467 kts | 258° |
| 2026-05-06 08:36 | 32.09188 | 126.18285 | 40055 ft | 467 kts | 258° |
| 2026-05-06 08:37 | 32.07834 | 126.12124 | 40053 ft | 467 kts | 258° |
| 2026-05-06 08:37 | 32.06204 | 126.04709 | 40050 ft | 467 kts | 258° |
| 2026-05-06 08:38 | 32.04604 | 125.97282 | 40049 ft | 467 kts | 258° |
| 2026-05-06 08:38 | 32.03015 | 125.89861 | 40052 ft | 467 kts | 258° |
| 2026-05-06 08:39 | 32.01422 | 125.82454 | 40047 ft | 467 kts | 258° |
| 2026-05-06 08:39 | 31.99808 | 125.75029 | 40048 ft | 467 kts | 258° |
| 2026-05-06 08:40 | 31.98166 | 125.67620 | 40049 ft | 467 kts | 258° |
| 2026-05-06 08:40 | 31.96512 | 125.60206 | 40046 ft | 467 kts | 258° |
| 2026-05-06 08:41 | 31.94862 | 125.52816 | 40048 ft | 467 kts | 258° |
| 2026-05-06 08:41 | 31.93203 | 125.45400 | 40045 ft | 467 kts | 258° |
| 2026-05-06 08:42 | 31.91544 | 125.38005 | 40044 ft | 467 kts | 258° |
| 2026-05-06 08:42 | 31.89881 | 125.30614 | 40042 ft | 467 kts | 258° |
| 2026-05-06 08:43 | 31.88213 | 125.23220 | 40043 ft | 467 kts | 258° |
| 2026-05-06 08:43 | 31.86549 | 125.15871 | 40040 ft | 467 kts | 258° |
| 2026-05-06 08:44 | 31.84873 | 125.08486 | 40041 ft | 467 kts | 258° |
| 2026-05-06 08:44 | 31.83190 | 125.01092 | 40039 ft | 467 kts | 258° |
| 2026-05-06 08:45 | 31.81559 | 124.93702 | 40036 ft | 467 kts | 258° |
| 2026-05-06 08:45 | 31.79965 | 124.86292 | 40037 ft | 467 kts | 258° |
| 2026-05-06 08:46 | 31.78369 | 124.78894 | 40036 ft | 467 kts | 258° |
| 2026-05-06 08:46 | 31.76763 | 124.71500 | 40038 ft | 467 kts | 258° |
| 2026-05-06 08:47 | 31.75149 | 124.64109 | 40037 ft | 467 kts | 258° |
| 2026-05-06 08:47 | 31.73530 | 124.56723 | 40032 ft | 467 kts | 258° |
| 2026-05-06 08:48 | 31.71904 | 124.49326 | 39954 ft | 466 kts | 258° |
| 2026-05-06 08:48 | 31.71096 | 124.45663 | 39452 ft | 463 kts | 258° |
| 2026-05-06 08:48 | 31.70290 | 124.42010 | 38762 ft | 464 kts | 259° |
| 2026-05-06 08:48 | 31.69486 | 124.38369 | 37913 ft | 467 kts | 259° |
| 2026-05-06 08:49 | 31.68660 | 124.34619 | 37089 ft | 469 kts | 259° |
| 2026-05-06 08:49 | 31.67850 | 124.30955 | 36331 ft | 471 kts | 259° |
| 2026-05-06 08:49 | 31.67027 | 124.27228 | 35555 ft | 472 kts | 259° |
| 2026-05-06 08:49 | 31.66206 | 124.23521 | 34771 ft | 474 kts | 258° |
| 2026-05-06 08:50 | 31.65373 | 124.19763 | 33979 ft | 476 kts | 259° |
| 2026-05-06 08:50 | 31.64542 | 124.15982 | 33074 ft | 478 kts | 259° |
| 2026-05-06 08:50 | 31.63707 | 124.12176 | 32208 ft | 479 kts | 258° |
| 2026-05-06 08:50 | 31.62873 | 124.08391 | 31363 ft | 479 kts | 258° |
| 2026-05-06 08:51 | 31.62032 | 124.04601 | 30516 ft | 480 kts | 258° |
| 2026-05-06 08:51 | 31.61188 | 124.00823 | 29595 ft | 480 kts | 258° |
| 2026-05-06 08:51 | 31.60347 | 123.97029 | 28703 ft | 478 kts | 258° |
| 2026-05-06 08:51 | 31.59521 | 123.93262 | 27902 ft | 475 kts | 258° |
| 2026-05-06 08:52 | 31.58704 | 123.89521 | 27155 ft | 471 kts | 258° |
| 2026-05-06 08:52 | 31.57895 | 123.85816 | 26449 ft | 467 kts | 258° |
| 2026-05-06 08:52 | 31.57093 | 123.82147 | 25754 ft | 463 kts | 258° |
| 2026-05-06 08:52 | 31.56295 | 123.78504 | 25075 ft | 459 kts | 258° |
| 2026-05-06 08:53 | 31.55504 | 123.74904 | 24407 ft | 454 kts | 258° |
| 2026-05-06 08:53 | 31.54719 | 123.71335 | 23740 ft | 450 kts | 258° |
| 2026-05-06 08:53 | 31.53938 | 123.67791 | 22980 ft | 447 kts | 258° |
| 2026-05-06 08:53 | 31.53164 | 123.64283 | 22209 ft | 443 kts | 257° |
| 2026-05-06 08:54 | 31.52396 | 123.60808 | 21478 ft | 438 kts | 257° |
| 2026-05-06 08:54 | 31.51635 | 123.57371 | 20757 ft | 434 kts | 257° |
| 2026-05-06 08:54 | 31.50880 | 123.53964 | 20054 ft | 430 kts | 257° |
| 2026-05-06 08:54 | 31.50136 | 123.50597 | 19359 ft | 426 kts | 257° |
| 2026-05-06 08:55 | 31.49462 | 123.47237 | 18674 ft | 422 kts | 259° |
| 2026-05-06 08:55 | 31.48832 | 123.43904 | 17945 ft | 418 kts | 259° |
| 2026-05-06 08:55 | 31.48209 | 123.40586 | 17181 ft | 414 kts | 259° |
| 2026-05-06 08:55 | 31.47590 | 123.37306 | 16453 ft | 410 kts | 258° |
| 2026-05-06 08:56 | 31.46976 | 123.34057 | 15941 ft | 407 kts | 258° |
| 2026-05-06 08:56 | 31.46361 | 123.30820 | 15743 ft | 407 kts | 258° |
| 2026-05-06 08:56 | 31.45753 | 123.27628 | 15703 ft | 407 kts | 258° |
| 2026-05-06 08:56 | 31.45136 | 123.24393 | 15706 ft | 406 kts | 258° |
| 2026-05-06 08:57 | 31.44519 | 123.21168 | 15706 ft | 406 kts | 258° |
| 2026-05-06 08:57 | 31.43903 | 123.17947 | 15708 ft | 406 kts | 258° |
| 2026-05-06 08:57 | 31.43285 | 123.14726 | 15706 ft | 405 kts | 258° |
| 2026-05-06 08:57 | 31.42666 | 123.11504 | 15708 ft | 405 kts | 258° |
| 2026-05-06 08:58 | 31.42047 | 123.08284 | 15705 ft | 405 kts | 258° |
| 2026-05-06 08:58 | 31.41427 | 123.05065 | 15703 ft | 405 kts | 258° |
| 2026-05-06 08:58 | 31.40807 | 123.01850 | 15706 ft | 405 kts | 258° |
| 2026-05-06 08:58 | 31.40188 | 122.98641 | 15700 ft | 405 kts | 258° |
| 2026-05-06 08:59 | 31.39574 | 122.95468 | 15698 ft | 390 kts | 258° |
| 2026-05-06 08:59 | 31.38990 | 122.92457 | 15695 ft | 369 kts | 258° |
| 2026-05-06 08:59 | 31.38437 | 122.89611 | 15693 ft | 349 kts | 258° |
| 2026-05-06 08:59 | 31.37913 | 122.86915 | 15691 ft | 331 kts | 258° |
| 2026-05-06 09:00 | 31.37416 | 122.84363 | 15692 ft | 315 kts | 258° |
| 2026-05-06 09:00 | 31.36948 | 122.81879 | 15691 ft | 311 kts | 260° |
| 2026-05-06 09:00 | 31.36723 | 122.79356 | 15530 ft | 310 kts | 269° |
| 2026-05-06 09:00 | 31.36778 | 122.76854 | 15192 ft | 306 kts | 273° |
| 2026-05-06 09:01 | 31.36931 | 122.74373 | 14777 ft | 305 kts | 274° |
| 2026-05-06 09:01 | 31.37122 | 122.71898 | 14374 ft | 304 kts | 275° |
| 2026-05-06 09:01 | 31.37330 | 122.69444 | 13991 ft | 303 kts | 275° |
| 2026-05-06 09:01 | 31.37546 | 122.66998 | 13564 ft | 301 kts | 275° |
| 2026-05-06 09:02 | 31.37764 | 122.64571 | 13150 ft | 299 kts | 275° |
| 2026-05-06 09:02 | 31.37982 | 122.62161 | 12739 ft | 297 kts | 275° |
| 2026-05-06 09:02 | 31.38201 | 122.59766 | 12319 ft | 295 kts | 275° |
| 2026-05-06 09:02 | 31.38418 | 122.57387 | 11927 ft | 293 kts | 275° |
| 2026-05-06 09:03 | 31.38634 | 122.55027 | 11512 ft | 291 kts | 275° |
| 2026-05-06 09:03 | 31.38848 | 122.52682 | 11118 ft | 289 kts | 275° |
| 2026-05-06 09:03 | 31.39060 | 122.50353 | 10717 ft | 287 kts | 275° |
| 2026-05-06 09:03 | 31.39271 | 122.48038 | 10345 ft | 285 kts | 276° |
| 2026-05-06 09:04 | 31.39480 | 122.45743 | 9971 ft | 282 kts | 275° |
| 2026-05-06 09:04 | 31.39686 | 122.43464 | 9536 ft | 281 kts | 275° |
| 2026-05-06 09:04 | 31.39892 | 122.41193 | 9090 ft | 280 kts | 275° |
| 2026-05-06 09:04 | 31.40094 | 122.38963 | 8663 ft | 279 kts | 275° |
| 2026-05-06 09:05 | 31.40297 | 122.36712 | 8232 ft | 278 kts | 275° |
| 2026-05-06 09:05 | 31.40499 | 122.34467 | 7793 ft | 277 kts | 275° |
| 2026-05-06 09:05 | 31.40702 | 122.32223 | 7353 ft | 277 kts | 275° |
| 2026-05-06 09:05 | 31.40903 | 122.29981 | 6942 ft | 276 kts | 275° |
| 2026-05-06 09:06 | 31.41103 | 122.27750 | 6532 ft | 275 kts | 274° |
| 2026-05-06 09:06 | 31.41302 | 122.25523 | 6106 ft | 275 kts | 274° |
| 2026-05-06 09:06 | 31.41502 | 122.23301 | 5669 ft | 274 kts | 274° |
| 2026-05-06 09:06 | 31.41699 | 122.21091 | 5264 ft | 273 kts | 273° |
| 2026-05-06 09:07 | 31.41894 | 122.18886 | 4860 ft | 272 kts | 273° |
| 2026-05-06 09:07 | 31.42096 | 122.16685 | 4424 ft | 272 kts | 273° |
| 2026-05-06 09:07 | 31.42301 | 122.14486 | 3999 ft | 271 kts | 273° |
| 2026-05-06 09:07 | 31.42502 | 122.12284 | 3546 ft | 272 kts | 274° |
| 2026-05-06 09:08 | 31.42701 | 122.10125 | 3176 ft | 271 kts | 273° |
| 2026-05-06 09:08 | 31.42897 | 122.07927 | 2730 ft | 272 kts | 273° |
| 2026-05-06 09:08 | 31.43083 | 122.05737 | 2377 ft | 268 kts | 272° |
| 2026-05-06 09:08 | 31.43261 | 122.03578 | 2062 ft | 265 kts | 272° |
| 2026-05-06 09:09 | 31.43440 | 122.01435 | 1990 ft | 266 kts | 272° |
| 2026-05-06 09:09 | 31.43627 | 121.99275 | 1982 ft | 264 kts | 272° |
| 2026-05-06 09:09 | 31.43808 | 121.97214 | 1970 ft | 245 kts | 272° |
| 2026-05-06 09:09 | 31.43992 | 121.95299 | 1971 ft | 229 kts | 272° |
| 2026-05-06 09:10 | 31.44157 | 121.93476 | 1978 ft | 223 kts | 273° |
| 2026-05-06 09:10 | 31.44322 | 121.91683 | 1969 ft | 222 kts | 272° |
| 2026-05-06 09:10 | 31.44485 | 121.89867 | 1975 ft | 225 kts | 271° |
| 2026-05-06 09:10 | 31.44629 | 121.88055 | 1975 ft | 223 kts | 271° |
| 2026-05-06 09:11 | 31.44775 | 121.86247 | 1974 ft | 223 kts | 271° |
| 2026-05-06 09:11 | 31.44905 | 121.84434 | 1980 ft | 223 kts | 269° |
| 2026-05-06 09:11 | 31.44820 | 121.82639 | 1972 ft | 217 kts | 257° |
| 2026-05-06 09:11 | 31.44547 | 121.80959 | 1959 ft | 203 kts | 253° |
| 2026-05-06 09:12 | 31.44251 | 121.79421 | 1958 ft | 190 kts | 252° |
| 2026-05-06 09:12 | 31.43921 | 121.77935 | 1969 ft | 187 kts | 247° |
| 2026-05-06 09:12 | 31.43399 | 121.76562 | 1968 ft | 183 kts | 235° |
| 2026-05-06 09:12 | 31.42638 | 121.75367 | 1976 ft | 179 kts | 221° |
| 2026-05-06 09:13 | 31.41712 | 121.74452 | 1972 ft | 175 kts | 211° |
| 2026-05-06 09:13 | 31.40645 | 121.73794 | 1972 ft | 172 kts | 199° |
| 2026-05-06 09:13 | 31.39499 | 121.73423 | 1967 ft | 170 kts | 188° |
| 2026-05-06 09:13 | 31.38322 | 121.73391 | 1975 ft | 169 kts | 173° |
| 2026-05-06 09:14 | 31.37169 | 121.73662 | 1972 ft | 170 kts | 166° |
| 2026-05-06 09:14 | 31.36029 | 121.74050 | 1977 ft | 171 kts | 164° |
| 2026-05-06 09:14 | 31.34892 | 121.74473 | 1975 ft | 171 kts | 163° |
| 2026-05-06 09:14 | 31.33767 | 121.74904 | 1966 ft | 170 kts | 162° |
| 2026-05-06 09:15 | 31.32641 | 121.75334 | 1970 ft | 172 kts | 162° |
| 2026-05-06 09:15 | 31.31498 | 121.75762 | 1973 ft | 173 kts | 162° |
| 2026-05-06 09:15 | 31.30355 | 121.76190 | 1974 ft | 173 kts | 163° |
| 2026-05-06 09:15 | 31.29213 | 121.76618 | 1976 ft | 172 kts | 162° |
| 2026-05-06 09:16 | 31.28071 | 121.77047 | 1974 ft | 172 kts | 162° |
| 2026-05-06 09:16 | 31.26933 | 121.77477 | 1985 ft | 172 kts | 162° |
| 2026-05-06 09:16 | 31.25787 | 121.77914 | 1988 ft | 174 kts | 162° |
| 2026-05-06 09:16 | 31.24655 | 121.78344 | 1824 ft | 164 kts | 162° |
| 2026-05-06 09:17 | 31.23616 | 121.78738 | 1612 ft | 151 kts | 162° |
| 2026-05-06 09:17 | 31.22651 | 121.79102 | 1406 ft | 141 kts | 162° |
| 2026-05-06 09:17 | 31.21760 | 121.79437 | 1206 ft | 129 kts | 162° |
| 2026-05-06 09:17 | 31.20943 | 121.79748 | 1041 ft | 120 kts | 161° |
| 2026-05-06 09:18 | 31.20143 | 121.80053 | 892 ft | 121 kts | 161° |
| 2026-05-06 09:18 | 31.19341 | 121.80359 | 736 ft | 120 kts | 160° |
| 2026-05-06 09:18 | 31.18559 | 121.80656 | 577 ft | 117 kts | 161° |
| 2026-05-06 09:18 | 31.17788 | 121.80947 | 418 ft | 116 kts | 161° |
| 2026-05-06 09:19 | 31.17025 | 121.81236 | 261 ft | 114 kts | 160° |
| 2026-05-06 09:19 | 31.16251 | 121.81531 | 132 ft | 121 kts | 161° |
| 2026-05-06 09:19 | 31.15443 | 121.81824 | 34 ft | 118 kts | 161° |
| 2026-05-06 09:19 | 31.14734 | 121.82105 | 27 ft | 95 kts | 167° |
| 2026-05-06 09:20 | 31.14287 | 121.82269 | 29 ft | 44 kts | 162° |
| 2026-05-06 09:20 | 31.14047 | 121.82312 | 28 ft | 30 kts | 186° |
| 2026-05-06 09:20 | 31.13915 | 121.82286 | 29 ft | 27 kts | 191° |
| 2026-05-06 09:20 | 31.13745 | 121.82272 | 29 ft | 20 kts | 171° |
| 2026-05-06 09:21 | 31.13686 | 121.82264 | 29 ft | 10 kts | 211° |
| 2026-05-06 09:21 | 31.13659 | 121.82208 | 29 ft | 10 kts | 249° |
| 2026-05-06 09:21 | 31.13631 | 121.82112 | 29 ft | 15 kts | 251° |
| 2026-05-06 09:21 | 31.13592 | 121.81970 | 28 ft | 21 kts | 252° |
| 2026-05-06 09:22 | 31.13541 | 121.81787 | 29 ft | 26 kts | 252° |
| 2026-05-06 09:22 | 31.13491 | 121.81596 | 29 ft | 24 kts | 258° |
| 2026-05-06 09:22 | 31.13519 | 121.81530 | 29 ft | 8 kts | 326° |
| 2026-05-06 09:22 | 31.13592 | 121.81504 | 29 ft | 14 kts | 342° |
| 2026-05-06 09:23 | 31.13677 | 121.81447 | 29 ft | 9 kts | 292° |
| 2026-05-06 09:23 | 31.13673 | 121.81397 | 29 ft | 0 kts | 251° |
| 2026-05-06 09:23 | 31.13668 | 121.81378 | 29 ft | 6 kts | 252° |
| 2026-05-06 09:23 | 31.13664 | 121.81367 | 29 ft | 0 kts | 252° |